createdAt,value
2018-03-07T00:01:51.817Z,34.77
2018-03-07T00:04:20.052Z,34.20
2018-03-07T00:06:49.197Z,35.93
2018-03-07T00:09:17.455Z,34.50
2018-03-07T00:11:46.453Z,34.23
2018-03-07T00:14:15.182Z,30.70
2018-03-07T00:16:43.428Z,32.50
2018-03-07T00:19:11.675Z,36.20
2018-03-07T00:21:40.023Z,37.83
2018-03-07T00:24:09.034Z,34.40
2018-03-07T00:26:38.051Z,39.33
2018-03-07T00:29:08.627Z,34.10
2018-03-07T00:31:37.268Z,36.70
2018-03-07T00:34:05.502Z,38.23
2018-03-07T00:36:34.804Z,35.37
2018-03-07T00:39:04.406Z,35.90
2018-03-07T00:41:40.397Z,37.33
2018-03-07T00:44:08.921Z,41.23
2018-03-07T00:46:37.157Z,36.50
2018-03-07T00:49:06.223Z,37.10
2018-03-07T00:51:34.457Z,34.73
2018-03-07T00:54:02.693Z,34.40
2018-03-07T00:56:32.122Z,39.23
2018-03-07T00:59:01.128Z,37.60
2018-03-07T01:01:29.372Z,37.77
2018-03-07T01:03:57.691Z,40.63
2018-03-07T01:06:25.933Z,36.77
2018-03-07T01:08:54.160Z,36.27
2018-03-07T01:11:23.804Z,40.93
2018-03-07T01:13:52.054Z,39.60
2018-03-07T01:16:21.436Z,36.40
2018-03-07T01:18:49.721Z,36.13
2018-03-07T01:21:18.720Z,39.30
2018-03-07T01:23:47.738Z,37.70
2018-03-07T01:26:16.136Z,38.60
2018-03-07T01:28:44.383Z,37.87
2018-03-07T01:31:12.622Z,37.97
2018-03-07T01:33:41.168Z,37.57
2018-03-07T01:36:10.179Z,38.90
2018-03-07T01:38:39.195Z,38.90
2018-03-07T01:41:08.687Z,38.20
2018-03-07T01:43:36.921Z,40.10
2018-03-07T01:46:11.598Z,38.57
2018-03-07T01:48:39.852Z,38.63
2018-03-07T01:51:08.103Z,37.70
2018-03-07T01:53:37.338Z,35.40
2018-03-07T01:56:05.572Z,39.10
2018-03-07T01:58:34.223Z,38.53
2018-03-07T02:01:03.873Z,38.10
2018-03-07T02:03:32.122Z,36.17
2018-03-07T02:06:00.368Z,35.73
2018-03-07T02:08:29.892Z,35.07
2018-03-07T02:10:58.534Z,38.30
2018-03-07T02:13:26.780Z,35.43
2018-03-07T02:18:32.402Z,37.67
2018-03-07T02:21:00.636Z,38.77
2018-03-07T02:23:28.896Z,38.60
2018-03-07T02:25:57.548Z,40.33
2018-03-07T02:28:26.558Z,38.17
2018-03-07T02:30:55.571Z,43.40
2018-03-07T02:33:28.806Z,38.10
2018-03-07T02:35:57.055Z,41.23
2018-03-07T02:38:25.294Z,40.97
2018-03-07T02:40:54.700Z,42.80
2018-03-07T02:43:23.356Z,39.87
2018-03-07T02:45:51.610Z,43.83
2018-03-07T02:48:24.185Z,42.97
2018-03-07T02:50:52.424Z,38.63
2018-03-07T02:53:20.676Z,43.57
2018-03-07T02:55:49.031Z,38.97
2018-03-07T02:58:18.790Z,37.03
2018-03-07T03:00:48.163Z,38.10
2018-03-07T03:03:16.560Z,36.97
2018-03-07T03:05:44.803Z,40.43
2018-03-07T03:08:14.408Z,38.23
2018-03-07T03:10:44.131Z,40.93
2018-03-07T03:13:12.375Z,38.00
2018-03-07T03:15:41.377Z,38.00
2018-03-07T03:18:13.602Z,43.23
2018-03-07T03:20:42.986Z,36.03
2018-03-07T03:23:11.239Z,39.60
2018-03-07T03:25:42.203Z,38.53
2018-03-07T03:28:11.197Z,38.97
2018-03-07T03:30:39.429Z,36.03
2018-03-07T03:33:07.804Z,36.53
2018-03-07T03:35:36.037Z,39.47
2018-03-07T03:38:04.270Z,38.60
2018-03-07T03:40:34.064Z,39.53
2018-03-07T03:43:03.072Z,39.70
2018-03-07T03:45:32.072Z,38.97
2018-03-07T03:48:00.708Z,39.13
2018-03-07T03:50:30.381Z,40.50
2018-03-07T03:52:58.616Z,43.03
2018-03-07T03:55:27.156Z,39.10
2018-03-07T03:57:56.520Z,38.13
2018-03-07T04:00:24.752Z,40.60
2018-03-07T04:02:53.597Z,39.53
2018-03-07T04:05:23.193Z,40.27
2018-03-07T04:07:51.311Z,38.87
2018-03-07T04:10:20.961Z,43.80
2018-03-07T04:12:50.547Z,42.90
2018-03-07T04:15:19.804Z,41.67
2018-03-07T04:17:49.324Z,42.67
2018-03-07T04:20:17.560Z,37.33
2018-03-07T04:22:45.792Z,44.60
2018-03-07T04:25:14.256Z,38.93
2018-03-07T04:27:43.993Z,40.07
2018-03-07T04:30:12.993Z,43.20
2018-03-07T04:32:43.775Z,40.03
2018-03-07T04:35:12.401Z,40.97
2018-03-07T04:37:41.400Z,43.37
2018-03-07T04:40:11.997Z,41.43
2018-03-07T04:42:40.624Z,38.97
2018-03-07T04:45:08.856Z,40.80
2018-03-07T04:47:38.013Z,42.77
2018-03-07T04:50:07.008Z,42.30
2018-03-07T04:52:39.123Z,39.63
2018-03-07T04:55:07.356Z,43.17
2018-03-07T04:57:35.590Z,41.37
2018-03-07T05:00:05.475Z,38.70
2018-03-07T05:02:33.708Z,44.10
2018-03-07T05:05:01.948Z,39.20
2018-03-07T05:07:30.548Z,40.20
2018-03-07T05:09:59.919Z,38.53
2018-03-07T05:12:28.150Z,43.33
2018-03-07T05:14:57.441Z,39.70
2018-03-07T05:17:26.824Z,39.77
2018-03-07T05:19:56.188Z,37.67
2018-03-07T05:22:24.663Z,37.70
2018-03-07T05:24:54.405Z,36.63
2018-03-07T05:27:23.405Z,35.73
2018-03-07T05:29:52.456Z,37.50
2018-03-07T05:32:20.692Z,38.63
2018-03-07T05:34:48.924Z,43.60
2018-03-07T05:37:18.009Z,43.40
2018-03-07T05:39:46.244Z,39.77
2018-03-07T05:42:15.243Z,40.70
2018-03-07T05:44:43.695Z,41.50
2018-03-07T05:47:13.415Z,42.80
2018-03-07T05:49:42.411Z,39.00
2018-03-07T05:52:10.833Z,39.03
2018-03-07T05:54:42.152Z,42.17
2018-03-07T05:57:10.386Z,44.80
2018-03-07T05:59:38.760Z,42.47
2018-03-07T06:02:06.987Z,45.47
2018-03-07T06:04:35.226Z,39.13
2018-03-07T06:07:05.689Z,50.90
2018-03-07T06:09:35.275Z,40.63
2018-03-07T06:12:04.528Z,54.73
2018-03-07T06:14:34.581Z,48.03
2018-03-07T06:17:02.812Z,47.47
2018-03-07T06:19:31.058Z,42.90
2018-03-07T06:24:33.728Z,39.17
2018-03-07T06:27:03.310Z,44.23
2018-03-07T06:29:31.426Z,39.80
2018-03-07T06:32:00.604Z,39.73
2018-03-07T06:34:29.603Z,40.77
2018-03-07T06:36:57.836Z,42.40
2018-03-07T06:39:27.090Z,40.97
2018-03-07T06:41:55.725Z,39.80
2018-03-07T06:44:24.721Z,35.83
2018-03-07T06:46:53.164Z,37.13
2018-03-07T06:49:22.160Z,37.20
2018-03-07T06:51:50.392Z,35.63
2018-03-07T06:54:19.639Z,31.50
2018-03-07T06:56:48.860Z,32.00
2018-03-07T06:59:17.094Z,29.77
2018-03-07T07:01:45.500Z,37.00
2018-03-07T07:04:13.979Z,34.43
2018-03-07T07:06:42.952Z,30.90
2018-03-07T07:09:15.208Z,34.20
2018-03-07T07:11:43.449Z,32.40
2018-03-07T07:14:12.450Z,29.90
2018-03-07T07:16:41.296Z,33.77
2018-03-07T07:19:09.528Z,38.30
2018-03-07T07:21:37.759Z,34.63
2018-03-07T07:24:06.132Z,32.30
2018-03-07T07:26:35.723Z,30.07
2018-03-07T07:29:03.833Z,29.77
2018-03-07T07:31:32.446Z,29.10
2018-03-07T07:34:00.676Z,30.27
2018-03-07T07:36:28.917Z,30.30
2018-03-07T07:38:57.622Z,28.43
2018-03-07T07:41:26.625Z,29.40
2018-03-07T07:43:54.864Z,32.67
2018-03-07T07:46:24.448Z,31.23
2018-03-07T07:48:52.688Z,33.90
2018-03-07T07:51:21.709Z,27.80
2018-03-07T07:53:51.216Z,31.37
2018-03-07T07:56:19.461Z,35.13
2018-03-07T07:58:47.917Z,31.80
2018-03-07T08:01:16.376Z,29.70
2018-03-07T08:03:45.380Z,29.60
2018-03-07T08:06:14.384Z,34.10
2018-03-07T08:08:43.477Z,37.87
2018-03-07T08:11:11.723Z,47.47
2018-03-07T08:13:40.730Z,35.67
2018-03-07T08:19:52.478Z,32.20
2018-03-07T08:22:20.720Z,39.20
2018-03-07T08:24:50.460Z,34.80
2018-03-07T08:27:20.388Z,31.40
2018-03-07T08:29:48.624Z,28.07
2018-03-07T08:32:16.857Z,34.07
2018-03-07T08:34:45.240Z,29.90
2018-03-07T08:37:13.475Z,28.20
2018-03-07T08:39:42.724Z,26.03
2018-03-07T08:42:11.829Z,29.10
2018-03-07T08:44:40.069Z,27.80
2018-03-07T08:47:09.662Z,22.90
2018-03-07T08:49:37.901Z,24.27
2018-03-07T08:52:06.904Z,30.53
2018-03-07T08:54:35.540Z,21.63
2018-03-07T08:57:04.428Z,21.53
2018-03-07T08:59:35.220Z,22.43
2018-03-07T09:02:04.244Z,25.13
2018-03-07T09:04:36.036Z,19.90
2018-03-07T09:07:04.277Z,21.97
2018-03-07T09:09:32.520Z,32.33
2018-03-07T09:12:00.909Z,22.00
2018-03-07T09:14:29.917Z,21.73
2018-03-07T09:16:58.548Z,20.73
2018-03-07T09:19:27.573Z,23.40
2018-03-07T09:21:55.812Z,22.33
2018-03-07T09:24:24.044Z,22.47
2018-03-07T09:26:53.460Z,22.63
2018-03-07T09:29:21.696Z,24.13
2018-03-07T09:31:51.440Z,23.10
2018-03-07T09:34:24.360Z,21.17
2018-03-07T09:36:52.597Z,22.83
2018-03-07T09:39:21.608Z,19.07
2018-03-07T09:41:50.380Z,17.13
2018-03-07T09:44:19.963Z,19.13
2018-03-07T09:46:48.075Z,16.83
2018-03-07T09:49:17.529Z,17.30
2018-03-07T09:51:46.166Z,18.43
2018-03-07T09:54:14.393Z,19.40
2018-03-07T09:56:43.581Z,20.23
2018-03-07T09:59:12.581Z,17.70
2018-03-07T10:01:43.864Z,17.83
2018-03-07T10:04:12.874Z,18.50
2018-03-07T10:06:41.879Z,17.07
2018-03-07T10:09:10.269Z,17.80
2018-03-07T10:11:40.012Z,21.33
2018-03-07T10:14:08.261Z,17.80
2018-03-07T10:16:39.874Z,17.07
2018-03-07T10:19:08.077Z,17.30
2018-03-07T10:21:36.312Z,14.40
2018-03-07T10:24:05.829Z,15.93
2018-03-07T10:26:34.069Z,15.73
2018-03-07T10:29:02.313Z,15.10
2018-03-07T10:31:34.145Z,13.30
2018-03-07T10:34:03.144Z,14.40
2018-03-07T10:36:32.148Z,14.70
2018-03-07T10:39:00.693Z,15.90
2018-03-07T10:41:30.434Z,14.77
2018-03-07T10:43:58.676Z,14.57
2018-03-07T10:46:27.140Z,13.60
2018-03-07T10:48:55.378Z,11.93
2018-03-07T10:51:23.611Z,14.63
2018-03-07T10:53:52.488Z,15.47
2018-03-07T10:56:21.119Z,12.53
2018-03-07T10:58:49.364Z,11.30
2018-03-07T11:03:57.028Z,11.00
2018-03-07T11:06:25.649Z,8.70
2018-03-07T11:08:53.884Z,9.03
2018-03-07T11:11:22.264Z,7.97
2018-03-07T11:13:50.541Z,10.80
2018-03-07T11:16:18.727Z,11.90
2018-03-07T11:18:49.120Z,10.93
2018-03-07T11:21:17.362Z,11.57
2018-03-07T11:23:46.487Z,8.57
2018-03-07T11:26:17.713Z,7.80
2018-03-07T11:28:46.713Z,9.50
2018-03-07T11:31:15.324Z,10.50
2018-03-07T11:33:45.613Z,11.17
2018-03-07T11:36:14.982Z,20.20
2018-03-07T11:38:43.992Z,13.97
2018-03-07T11:41:13.725Z,14.20
2018-03-07T11:43:41.959Z,17.90
2018-03-07T11:46:10.197Z,17.27
2018-03-07T11:51:13.250Z,19.70
2018-03-07T11:53:42.840Z,19.33
2018-03-07T11:56:11.718Z,17.70
2018-03-07T11:58:40.604Z,17.50
2018-03-07T12:01:08.844Z,17.80
2018-03-07T12:03:37.083Z,21.53
2018-03-07T12:06:08.644Z,22.90
2018-03-07T12:08:38.390Z,22.80
2018-03-07T12:11:06.633Z,24.60
2018-03-07T12:13:35.608Z,23.17
2018-03-07T12:16:03.847Z,22.43
2018-03-07T12:18:32.852Z,23.10
2018-03-07T12:21:03.479Z,19.43
2018-03-07T12:23:31.725Z,20.20
2018-03-07T12:25:59.970Z,19.47
2018-03-07T12:28:29.925Z,18.50
2018-03-07T12:30:58.165Z,21.50
2018-03-07T12:33:27.540Z,20.83
2018-03-07T12:35:58.312Z,19.80
2018-03-07T12:38:26.552Z,19.57
2018-03-07T12:40:55.942Z,17.20
2018-03-07T12:43:25.472Z,20.93
2018-03-07T12:45:54.112Z,16.87
2018-03-07T12:48:23.704Z,18.77
2018-03-07T12:50:52.628Z,18.77
2018-03-07T12:53:22.376Z,16.50
2018-03-07T12:55:50.616Z,19.70
2018-03-07T12:58:19.018Z,15.63
2018-03-07T13:00:47.256Z,16.50
2018-03-07T13:03:17.004Z,18.33
2018-03-07T13:05:46.152Z,17.47
2018-03-07T13:08:16.280Z,15.83
2018-03-07T13:10:45.284Z,15.17
2018-03-07T13:13:15.092Z,16.60
2018-03-07T13:15:43.332Z,14.47
2018-03-07T13:18:11.572Z,12.60
2018-03-07T13:20:41.484Z,13.37
2018-03-07T13:23:10.369Z,14.00
2018-03-07T13:25:40.120Z,14.67
2018-03-07T13:28:10.289Z,13.70
2018-03-07T13:30:38.528Z,18.60
2018-03-07T13:33:06.776Z,13.80
2018-03-07T13:35:36.831Z,14.23
2018-03-07T13:38:05.340Z,15.77
2018-03-07T13:40:33.581Z,14.17
2018-03-07T13:43:03.979Z,13.60
2018-03-07T13:45:32.612Z,13.83
2018-03-07T13:48:00.852Z,14.90
2018-03-07T13:50:33.398Z,12.00
2018-03-07T13:53:01.644Z,14.27
2018-03-07T13:55:29.883Z,14.10
2018-03-07T13:57:59.423Z,14.27
2018-03-07T14:00:28.416Z,14.40
2018-03-07T14:02:57.792Z,16.23
2018-03-07T14:05:26.109Z,17.07
2018-03-07T14:07:54.348Z,16.40
2018-03-07T14:10:23.037Z,17.10
2018-03-07T14:12:53.959Z,17.40
2018-03-07T14:15:22.192Z,19.07
2018-03-07T14:17:50.473Z,17.23
2018-03-07T14:20:19.759Z,19.73
2018-03-07T14:22:48.396Z,17.40
2018-03-07T14:25:16.637Z,18.33
2018-03-07T14:27:46.050Z,16.77
2018-03-07T14:30:14.632Z,17.90
2018-03-07T14:32:42.868Z,18.77
2018-03-07T14:35:11.540Z,17.50
2018-03-07T14:37:39.777Z,17.57
2018-03-07T14:40:08.017Z,18.90
2018-03-07T14:42:36.767Z,18.73
2018-03-07T14:45:05.410Z,16.77
2018-03-07T14:47:33.643Z,19.37
2018-03-07T14:50:03.401Z,17.90
2018-03-07T14:52:32.040Z,17.50
2018-03-07T14:55:00.280Z,19.27
2018-03-07T14:57:28.681Z,19.93
2018-03-07T14:59:56.927Z,19.50
2018-03-07T15:02:26.312Z,18.73
2018-03-07T15:04:55.529Z,17.97
2018-03-07T15:07:24.539Z,16.93
2018-03-07T15:09:52.778Z,17.37
2018-03-07T15:12:23.160Z,18.70
2018-03-07T15:14:51.405Z,17.10
2018-03-07T15:17:19.652Z,16.57
2018-03-07T15:19:49.604Z,15.43
2018-03-07T15:22:19.230Z,15.63
2018-03-07T15:24:47.464Z,15.57
2018-03-07T15:27:16.136Z,15.63
2018-03-07T15:29:44.376Z,15.50
2018-03-07T15:32:12.611Z,15.27
2018-03-07T15:34:41.765Z,15.20
2018-03-07T15:37:10.780Z,16.43
2018-03-07T15:39:39.784Z,12.70
2018-03-07T15:42:09.477Z,13.30
2018-03-07T15:44:38.116Z,12.63
2018-03-07T15:47:06.353Z,10.60
2018-03-07T15:49:34.928Z,11.37
2018-03-07T15:52:03.156Z,8.83
2018-03-07T15:54:32.744Z,9.00
2018-03-07T15:57:01.875Z,9.07
2018-03-07T15:59:31.628Z,12.90
2018-03-07T16:02:00.632Z,6.70
2018-03-07T16:04:29.949Z,11.00
2018-03-07T16:06:58.192Z,7.33
2018-03-07T16:09:27.185Z,7.33
2018-03-07T16:11:55.557Z,5.73
2018-03-07T16:14:27.435Z,9.30
2018-03-07T16:16:55.664Z,6.63
2018-03-07T16:19:24.949Z,13.07
2018-03-07T16:21:53.571Z,6.13
2018-03-07T16:24:21.796Z,6.80
2018-03-07T16:26:51.001Z,8.40
2018-03-07T16:29:19.952Z,7.17
2018-03-07T16:31:48.181Z,9.90
2018-03-07T16:34:16.544Z,7.03
2018-03-07T16:36:44.812Z,6.10
2018-03-07T16:39:13.438Z,6.53
2018-03-07T16:41:43.443Z,6.40
2018-03-07T16:44:12.681Z,6.10
2018-03-07T16:46:42.260Z,5.47
2018-03-07T16:49:11.909Z,5.23
2018-03-07T16:51:40.133Z,5.87
2018-03-07T16:54:09.131Z,5.43
2018-03-07T16:56:38.384Z,5.30
2018-03-07T16:59:07.401Z,6.57
2018-03-07T17:01:36.405Z,5.03
2018-03-07T17:04:07.264Z,4.83
2018-03-07T17:06:35.871Z,4.00
2018-03-07T17:09:04.505Z,3.73
2018-03-07T17:11:35.425Z,3.30
2018-03-07T17:14:04.053Z,3.53
2018-03-07T17:16:40.029Z,2.80
2018-03-07T17:19:09.749Z,3.70
2018-03-07T17:21:38.210Z,3.70
2018-03-07T17:24:07.836Z,3.13
2018-03-07T17:26:38.274Z,3.90
2018-03-07T17:29:07.931Z,3.10
2018-03-07T17:31:37.386Z,3.20
2018-03-07T17:34:08.719Z,3.60
2018-03-07T17:36:38.160Z,4.60
2018-03-07T17:39:07.612Z,5.87
2018-03-07T17:41:37.313Z,3.50
2018-03-07T17:44:06.763Z,4.60
2018-03-07T17:46:36.211Z,4.57
2018-03-07T17:49:06.739Z,6.03
2018-03-07T17:51:36.189Z,3.80
2018-03-07T17:54:05.632Z,5.43
2018-03-07T17:56:36.105Z,4.43
2018-03-07T17:59:05.555Z,3.90
2018-03-07T18:01:35.031Z,3.53
2018-03-07T18:04:05.840Z,3.80
2018-03-07T18:06:35.291Z,4.20
2018-03-07T18:09:04.803Z,3.30
2018-03-07T18:11:34.335Z,5.47
2018-03-07T18:14:03.779Z,3.50
2018-03-07T18:16:33.237Z,3.23
2018-03-07T18:19:04.296Z,3.90
2018-03-07T18:21:33.746Z,3.77
2018-03-07T18:24:03.196Z,3.80
2018-03-07T18:26:32.782Z,4.10
2018-03-07T18:29:02.236Z,3.77
2018-03-07T18:31:31.685Z,4.47
2018-03-07T18:34:01.998Z,5.10
2018-03-07T18:36:31.443Z,4.60
2018-03-07T18:39:00.892Z,4.30
2018-03-07T18:41:31.500Z,11.13
2018-03-07T18:44:00.951Z,4.60
2018-03-07T18:46:30.403Z,4.77
2018-03-07T18:51:36.511Z,5.40
2018-03-07T18:54:05.960Z,4.47
2018-03-07T18:56:35.432Z,4.00
2018-03-07T18:59:06.240Z,4.87
2018-03-07T19:01:35.691Z,5.50
2018-03-07T19:04:05.144Z,5.30
2018-03-07T19:06:35.435Z,4.63
2018-03-07T19:09:04.880Z,5.73
2018-03-07T19:11:34.328Z,6.00
2018-03-07T19:14:03.920Z,5.50
2018-03-07T19:16:33.363Z,6.27
2018-03-07T19:19:02.816Z,5.90
2018-03-07T19:21:35.791Z,6.03
2018-03-07T19:24:05.256Z,6.63
2018-03-07T19:26:34.695Z,7.13
2018-03-07T19:29:04.795Z,6.67
2018-03-07T19:31:34.239Z,6.80
2018-03-07T19:34:03.683Z,8.13
2018-03-07T19:36:33.292Z,7.97
2018-03-07T19:39:02.735Z,7.57
2018-03-07T19:41:32.188Z,8.20
2018-03-07T19:44:01.788Z,8.23
2018-03-07T19:46:31.245Z,9.00
2018-03-07T19:49:00.695Z,11.53
2018-03-07T19:51:33.532Z,9.30
2018-03-07T19:54:02.987Z,8.90
2018-03-07T19:56:32.427Z,9.93
2018-03-07T19:59:02.997Z,9.23
2018-03-07T20:01:32.453Z,10.47
2018-03-07T20:04:02.125Z,9.27
2018-03-07T20:06:31.576Z,10.10
2018-03-07T20:09:01.024Z,10.40
2018-03-07T20:14:06.719Z,11.60
2018-03-07T20:16:36.180Z,11.43
2018-03-07T20:19:05.636Z,10.50
2018-03-07T20:21:35.580Z,12.17
2018-03-07T20:24:05.035Z,11.73
2018-03-07T20:26:34.491Z,13.60
2018-03-07T20:29:04.094Z,12.30
2018-03-07T20:31:33.579Z,13.47
2018-03-07T20:34:03.015Z,12.90
2018-03-07T20:41:42.768Z,15.43
2018-03-07T20:44:12.233Z,18.30
2018-03-07T20:49:16.856Z,21.27
2018-03-07T20:51:46.316Z,19.43
2018-03-07T20:54:15.779Z,23.37
2018-03-07T20:56:45.394Z,21.97
2018-03-07T20:59:14.888Z,19.70
2018-03-07T21:01:44.370Z,22.63
2018-03-07T21:04:15.034Z,21.53
2018-03-07T21:06:44.457Z,22.83
2018-03-07T21:09:13.919Z,22.13
2018-03-07T21:11:45.367Z,23.10
2018-03-07T21:14:14.835Z,21.93
2018-03-07T21:16:44.292Z,20.60
2018-03-07T21:19:14.608Z,21.30
2018-03-07T21:21:44.056Z,26.33
2018-03-07T21:24:13.519Z,29.73
2018-03-07T21:26:43.192Z,26.50
2018-03-07T21:29:12.639Z,27.30
2018-03-07T21:31:42.099Z,23.40
2018-03-07T21:34:11.982Z,25.40
2018-03-07T21:36:41.438Z,27.00
2018-03-07T21:39:10.899Z,25.40
2018-03-07T21:41:41.804Z,22.57
2018-03-07T21:44:11.259Z,22.80
2018-03-07T21:46:40.720Z,26.30
2018-03-07T21:49:10.796Z,21.97
2018-03-07T21:51:40.256Z,23.00
2018-03-07T21:54:09.716Z,19.70
2018-03-07T21:56:41.287Z,27.30
2018-03-07T21:59:10.743Z,21.53
2018-03-07T22:01:40.203Z,21.47
2018-03-07T22:04:09.934Z,24.20
2018-03-07T22:06:39.395Z,25.50
2018-03-07T22:09:08.859Z,29.40
2018-03-07T22:11:38.931Z,26.80
2018-03-07T22:14:08.392Z,26.70
2018-03-07T22:16:37.855Z,24.00
2018-03-07T22:19:07.839Z,22.67
2018-03-07T22:21:38.255Z,24.37
2018-03-07T22:24:08.040Z,22.97
2018-03-07T22:26:37.499Z,21.23
2018-03-07T22:29:06.955Z,23.07
2018-03-07T22:31:36.732Z,24.43
2018-03-07T22:34:06.193Z,24.50
2018-03-07T22:36:35.653Z,27.77
2018-03-07T22:39:05.423Z,30.30
2018-03-07T22:41:34.875Z,28.63
2018-03-07T22:44:04.344Z,26.23
2018-03-07T22:46:35.152Z,27.57
2018-03-07T22:49:05.079Z,27.17
2018-03-07T22:51:34.536Z,28.33
2018-03-07T22:54:04.844Z,26.73
2018-03-07T22:56:34.304Z,26.13
2018-03-07T22:59:03.763Z,29.87
2018-03-07T23:01:34.788Z,35.63
2018-03-07T23:04:04.248Z,29.83
2018-03-07T23:06:34.464Z,31.93
2018-03-07T23:09:03.933Z,31.20
2018-03-07T23:11:33.388Z,34.67
2018-03-07T23:14:06.744Z,35.40
2018-03-07T23:16:36.204Z,35.87
2018-03-07T23:19:05.668Z,39.20
2018-03-07T23:21:35.442Z,35.80
2018-03-07T23:24:04.895Z,40.37
2018-03-07T23:26:34.356Z,38.23
2018-03-07T23:29:03.952Z,39.80
2018-03-07T23:31:33.420Z,47.30
2018-03-07T23:34:02.871Z,40.27
2018-03-07T23:36:33.239Z,45.80
2018-03-07T23:39:02.711Z,53.53
2018-03-07T23:41:32.171Z,43.87
2018-03-07T23:44:01.792Z,46.37
2018-03-07T23:46:31.259Z,45.07
2018-03-07T23:49:00.724Z,46.80
2018-03-07T23:51:30.545Z,45.23
2018-03-07T23:54:00.004Z,44.87
2018-03-07T23:56:29.467Z,50.23
2018-03-07T23:59:03.254Z,50.03
